Time;durP1;ratioP1;P1;durP2;ratioP2;P2;SDS_P1;SDS_P2;PMS_P1;PMS_P2;Temp;Humidity;BMP_temperature;BMP_pressure;BME280_temperature;BME280_humidity;BME280_pressure;Samples;Min_cycle;Max_cycle;Signal;HPM_P1;HPM_P2
2022/04/21 00:01:39;;;;;;;6.15;3.70;;;7.60;99.90;;;;;;5093990;28;20047;-82
2022/04/21 00:04:05;;;;;;;6.40;4.00;;;7.60;99.90;;;;;;5098221;22;20499;-83
2022/04/21 00:06:30;;;;;;;7.25;3.90;;;7.90;99.90;;;;;;5094954;22;20060;-83
2022/04/21 00:08:56;;;;;;;6.40;3.78;;;7.50;99.90;;;;;;5094269;28;20048;-82
2022/04/21 00:11:22;;;;;;;7.03;3.80;;;8.00;99.90;;;;;;5117658;22;20059;-82
2022/04/21 00:13:47;;;;;;;8.07;4.13;;;7.40;99.90;;;;;;5108899;22;20116;-82
2022/04/21 00:16:13;;;;;;;7.80;4.45;;;7.90;99.90;;;;;;5102442;22;20060;-82
2022/04/21 00:18:39;;;;;;;7.53;4.20;;;7.70;99.90;;;;;;5075204;28;20076;-83
2022/04/21 00:21:05;;;;;;;6.95;4.38;;;7.70;99.90;;;;;;5090186;22;20056;-83
2022/04/21 00:23:32;;;;;;;6.88;3.85;;;7.60;99.90;;;;;;5113104;22;20060;-83
2022/04/21 00:26:01;;;;;;;7.60;4.30;;;7.40;99.90;;;;;;5097406;22;20049;-82
2022/04/21 00:28:28;;;;;;;7.50;4.43;;;7.50;99.90;;;;;;5094027;22;20045;-82
2022/04/21 00:30:55;;;;;;;8.93;4.70;;;7.70;99.90;;;;;;5065311;22;20056;-82
2022/04/21 00:33:21;;;;;;;7.53;4.57;;;7.70;99.90;;;;;;5094606;22;20049;-82
2022/04/21 00:35:47;;;;;;;7.43;4.57;;;7.40;99.90;;;;;;5093892;22;20077;-82
2022/04/21 00:38:13;;;;;;;8.00;4.40;;;7.20;99.90;;;;;;5098807;22;20052;-82
2022/04/21 00:40:39;;;;;;;8.07;4.15;;;7.20;99.90;;;;;;5097397;22;20055;-83
2022/04/21 00:43:05;;;;;;;9.43;4.75;;;7.10;99.90;;;;;;5098229;22;20037;-83
2022/04/21 00:45:32;;;;;;;7.78;4.40;;;7.10;99.90;;;;;;5073557;28;20053;-83
2022/04/21 00:47:58;;;;;;;9.95;5.05;;;7.10;99.90;;;;;;5095480;22;20048;-83
2022/04/21 00:50:29;;;;;;;9.43;5.45;;;7.20;99.90;;;;;;5096866;22;20120;-83
2022/04/21 00:52:57;;;;;;;7.72;5.07;;;7.00;99.90;;;;;;5075244;28;20036;-83
2022/04/21 00:55:23;;;;;;;10.52;5.32;;;7.40;99.90;;;;;;5090352;28;20045;-83
2022/04/21 00:57:51;;;;;;;8.32;5.18;;;7.30;99.90;;;;;;5082981;22;20123;-83
2022/04/21 01:00:17;;;;;;;9.60;5.40;;;7.00;99.90;;;;;;5104933;22;20411;-83
2022/04/21 01:02:46;;;;;;;9.45;5.35;;;6.90;99.90;;;;;;5091185;22;20084;-83
2022/04/21 01:05:17;;;;;;;7.60;4.90;;;6.90;99.90;;;;;;5076432;28;20040;-83
2022/04/21 01:07:44;;;;;;;9.32;5.20;;;6.90;99.90;;;;;;5093852;28;20040;-82
2022/04/21 01:10:10;;;;;;;9.18;5.72;;;6.90;99.90;;;;;;5094515;28;20423;-84
2022/04/21 01:12:37;;;;;;;7.80;4.82;;;6.80;99.90;;;;;;5093838;28;20050;-83
2022/04/21 01:15:03;;;;;;;8.52;5.45;;;7.00;99.90;;;;;;5109939;28;20047;-83
2022/04/21 01:17:37;;;;;;;7.90;4.97;;;6.80;99.90;;;;;;5099841;22;20067;-83
2022/04/21 01:20:05;;;;;;;9.48;5.22;;;6.80;99.90;;;;;;5110105;28;20040;-82
2022/04/21 01:22:30;;;;;;;8.43;5.60;;;6.80;99.90;;;;;;5092582;28;20048;-83
2022/04/21 01:24:56;;;;;;;10.48;6.00;;;6.80;99.90;;;;;;5099880;22;20055;-83
2022/04/21 01:27:25;;;;;;;10.98;5.80;;;6.90;99.90;;;;;;5093720;28;20040;-83
2022/04/21 01:29:51;;;;;;;11.35;5.60;;;6.80;99.90;;;;;;5110093;28;20040;-82
2022/04/21 01:32:16;;;;;;;10.10;6.30;;;7.30;99.90;;;;;;5096975;22;20048;-83
2022/04/21 01:34:42;;;;;;;11.30;5.82;;;6.70;99.90;;;;;;5073305;28;20135;-83
2022/04/21 01:42:36;;;;;;;11.23;6.00;;;6.70;99.90;;;;;;5104157;28;20103;-83
2022/04/21 01:45:02;;;;;;;9.02;5.90;;;6.70;99.90;;;;;;5088395;28;20032;-82
2022/04/21 01:47:28;;;;;;;10.05;5.70;;;6.60;99.90;;;;;;5089117;28;20067;-83
2022/04/21 01:49:53;;;;;;;10.60;6.50;;;6.60;99.90;;;;;;5089438;28;20047;-83
2022/04/21 01:52:19;;;;;;;10.65;6.10;;;6.60;99.90;;;;;;5092504;22;20626;-83
2022/04/21 01:54:50;;;;;;;10.40;6.22;;;6.70;99.90;;;;;;5083121;28;20044;-83
2022/04/21 01:57:16;;;;;;;11.38;6.68;;;7.20;99.90;;;;;;5066291;28;20344;-83
2022/04/21 01:59:41;;;;;;;11.82;6.13;;;7.00;99.90;;;;;;5077375;22;20062;-83
2022/04/21 02:02:07;;;;;;;12.32;6.47;;;6.60;99.90;;;;;;5088371;22;20090;-83
2022/04/21 02:04:33;;;;;;;11.18;6.53;;;7.00;99.90;;;;;;5066775;28;20044;-82
2022/04/21 02:06:58;;;;;;;13.60;7.15;;;6.80;99.90;;;;;;5075159;22;20045;-83
2022/04/21 02:09:24;;;;;;;9.80;6.78;;;7.10;99.90;;;;;;5082856;28;20049;-82
2022/04/21 02:11:51;;;;;;;10.95;6.40;;;6.80;99.90;;;;;;5064345;28;20094;-83
2022/04/21 02:14:16;;;;;;;10.60;6.68;;;6.50;99.90;;;;;;5071353;22;20140;-82
2022/04/21 02:16:42;;;;;;;11.35;6.70;;;7.20;99.90;;;;;;5068381;28;20067;-82
2022/04/21 02:19:08;;;;;;;12.38;7.07;;;6.80;99.90;;;;;;5069375;28;20090;-83
2022/04/21 02:21:33;;;;;;;12.45;6.65;;;7.00;99.90;;;;;;5067208;28;20048;-83
2022/04/21 02:23:59;;;;;;;11.38;6.65;;;6.60;99.90;;;;;;5084331;23;20403;-82
2022/04/21 02:26:25;;;;;;;13.05;7.53;;;6.50;99.90;;;;;;5102205;28;20059;-83
2022/04/21 02:28:50;;;;;;;14.18;7.43;;;6.80;99.90;;;;;;5065957;28;20097;-82
2022/04/21 02:31:16;;;;;;;12.15;7.25;;;6.90;99.90;;;;;;5070489;22;20052;-83
2022/04/21 02:33:42;;;;;;;12.52;7.40;;;6.50;99.90;;;;;;5064542;28;20480;-83
2022/04/21 02:36:07;;;;;;;13.15;7.43;;;6.50;99.90;;;;;;5067287;22;20045;-84
2022/04/21 02:38:33;;;;;;;14.93;7.78;;;6.50;99.90;;;;;;5075232;22;20061;-82
2022/04/21 02:40:59;;;;;;;11.25;7.03;;;6.50;99.90;;;;;;5064890;22;20068;-82
2022/04/21 02:45:55;;;;;;;13.85;8.18;;;6.40;99.90;;;;;;5091798;22;20044;-83
2022/04/21 02:48:20;;;;;;;14.50;9.00;;;7.10;99.90;;;;;;5041829;28;20087;-82
2022/04/21 02:50:49;;;;;;;14.30;8.20;;;6.70;99.90;;;;;;5041933;28;20388;-82
2022/04/21 02:53:17;;;;;;;12.38;7.65;;;6.90;99.90;;;;;;5042408;28;20098;-82
2022/04/21 02:58:27;;;;;;;13.55;8.40;;;6.50;99.90;;;;;;5075143;22;20055;-83
2022/04/21 03:00:53;;;;;;;14.35;8.50;;;6.50;99.90;;;;;;5061966;28;20040;-82
2022/04/21 03:03:18;;;;;;;16.15;8.77;;;7.20;99.90;;;;;;5064994;28;20055;-82
2022/04/21 03:05:44;;;;;;;14.98;9.00;;;6.50;99.90;;;;;;5075923;22;20393;-83
2022/04/21 03:08:10;;;;;;;16.95;9.25;;;6.60;99.90;;;;;;5127130;22;20075;-83
2022/04/21 03:10:35;;;;;;;17.05;9.13;;;6.90;99.90;;;;;;5103249;28;20565;-83
2022/04/21 03:13:01;;;;;;;15.85;9.50;;;6.50;99.90;;;;;;5105644;28;20043;-82
2022/04/21 03:15:27;;;;;;;15.55;9.10;;;6.30;99.90;;;;;;5105865;28;20099;-82
2022/04/21 03:17:52;;;;;;;17.00;9.05;;;7.00;99.90;;;;;;5098505;22;20547;-83
2022/04/21 03:25:46;;;;;;;17.20;9.60;;;6.20;99.90;;;;;;5125016;22;20433;-83
2022/04/21 03:28:12;;;;;;;17.75;10.27;;;6.20;99.90;;;;;;5108119;22;20044;-83
2022/04/21 03:30:38;;;;;;;15.63;9.57;;;6.30;99.90;;;;;;5084157;22;20048;-83
2022/04/21 03:33:04;;;;;;;15.30;9.10;;;6.20;99.90;;;;;;5089085;28;20067;-83
2022/04/21 03:35:30;;;;;;;16.27;9.65;;;6.20;99.90;;;;;;5092402;22;20059;-82
2022/04/21 03:37:56;;;;;;;18.63;10.05;;;6.40;99.90;;;;;;5068735;28;20059;-83
2022/04/21 03:40:22;;;;;;;17.33;9.55;;;6.30;99.90;;;;;;5085750;28;20040;-82
2022/04/21 03:42:47;;;;;;;18.85;10.55;;;6.30;99.90;;;;;;5068250;28;20162;-84
2022/04/21 03:45:13;;;;;;;17.88;10.35;;;6.40;99.90;;;;;;5083380;22;20040;-83
2022/04/21 03:47:39;;;;;;;17.38;9.88;;;6.20;99.90;;;;;;5065203;28;20068;-82
2022/04/21 03:50:05;;;;;;;19.98;9.98;;;6.30;99.90;;;;;;5073253;23;20079;-83
2022/04/21 03:52:31;;;;;;;18.65;10.52;;;6.30;99.90;;;;;;5114824;22;20051;-85
2022/04/21 03:54:57;;;;;;;15.95;8.95;;;6.20;99.90;;;;;;5111709;28;20048;-83
2022/04/21 03:57:25;;;;;;;17.60;10.45;;;6.30;99.90;;;;;;5095147;22;20062;-84
2022/04/21 03:59:51;;;;;;;19.15;10.13;;;6.30;99.90;;;;;;5075536;28;20074;-83
2022/04/21 04:02:16;;;;;;;18.75;10.55;;;6.30;99.90;;;;;;5100354;22;20056;-84
2022/04/21 04:04:42;;;;;;;16.65;10.18;;;6.40;99.90;;;;;;5081471;22;20055;-83
2022/04/21 04:12:38;;;;;;;17.63;10.38;;;6.30;99.90;;;;;;5096605;22;20569;-83
2022/04/21 04:15:07;;;;;;;18.27;10.27;;;6.30;99.90;;;;;;5055549;22;20120;-82
2022/04/21 04:17:33;;;;;;;19.55;10.73;;;6.30;99.90;;;;;;5091685;22;20043;-83
2022/04/21 04:20:00;;;;;;;16.42;9.98;;;6.20;99.90;;;;;;5086047;28;20367;-82
2022/04/21 04:22:26;;;;;;;17.52;10.35;;;6.20;99.90;;;;;;5079335;22;20057;-83
2022/04/21 04:24:54;;;;;;;19.35;11.38;;;6.80;99.90;;;;;;5054516;22;20501;-83
2022/04/21 04:27:21;;;;;;;19.40;10.75;;;6.10;99.90;;;;;;5063275;28;20498;-83
2022/04/21 04:29:47;;;;;;;17.80;11.40;;;6.10;99.90;;;;;;5063743;28;20045;-83
2022/04/21 04:32:14;;;;;;;18.83;10.63;;;6.10;99.90;;;;;;5068092;22;20077;-82
2022/04/21 04:34:41;;;;;;;17.13;10.32;;;6.60;99.90;;;;;;5059152;28;20045;-82
2022/04/21 04:37:07;;;;;;;18.38;10.80;;;6.10;99.90;;;;;;5059585;28;20044;-82
2022/04/21 04:39:32;;;;;;;19.90;11.32;;;6.20;99.90;;;;;;5080948;22;20059;-83
2022/04/21 04:42:16;;;;;;;22.38;11.48;;;6.00;99.90;;;;;;5078621;28;20377;-83
2022/04/21 04:44:44;;;;;;;18.80;11.13;;;6.00;99.90;;;;;;5069734;28;20131;-82
2022/04/21 04:47:10;;;;;;;19.20;11.15;;;6.00;99.90;;;;;;5066229;28;20048;-83
2022/04/21 04:49:36;;;;;;;17.48;10.73;;;6.00;99.90;;;;;;5079871;22;20052;-83
2022/04/21 04:52:01;;;;;;;19.52;10.40;;;6.10;99.90;;;;;;5063740;23;20045;-84
2022/04/21 04:54:29;;;;;;;23.20;12.70;;;6.00;99.90;;;;;;5031209;28;20079;-83
2022/04/21 04:56:55;;;;;;;20.60;11.40;;;6.00;99.90;;;;;;5032822;28;20104;-85
2022/04/21 04:59:21;;;;;;;20.50;11.68;;;6.60;99.90;;;;;;5031555;28;20519;-83
2022/04/21 05:01:47;;;;;;;20.73;11.55;;;6.50;99.90;;;;;;5070577;23;20055;-83
2022/04/21 05:04:14;;;;;;;18.23;11.00;;;6.10;99.90;;;;;;5069014;22;20049;-83
2022/04/21 05:06:43;;;;;;;19.80;11.25;;;6.10;99.90;;;;;;5076433;22;20046;-83
2022/04/21 05:09:11;;;;;;;18.08;11.02;;;6.10;99.90;;;;;;5080814;22;20099;-86
2022/04/21 05:11:38;;;;;;;18.60;10.88;;;6.10;99.90;;;;;;5089299;28;20068;-83
2022/04/21 05:14:04;;;;;;;19.58;11.63;;;6.20;99.90;;;;;;5071540;28;20123;-85
2022/04/21 05:16:30;;;;;;;19.90;11.18;;;6.20;99.90;;;;;;5070904;28;20079;-85
2022/04/21 05:18:57;;;;;;;18.63;10.82;;;6.70;99.90;;;;;;5072005;28;20040;-83
2022/04/21 05:21:24;;;;;;;22.52;11.23;;;6.20;99.90;;;;;;5070783;28;20044;-83
2022/04/21 05:23:56;;;;;;;18.02;10.52;;;6.30;99.90;;;;;;5089824;28;20023;-83
2022/04/21 05:26:22;;;;;;;17.70;10.75;;;6.40;99.90;;;;;;5069305;28;20045;-83
2022/04/21 05:28:48;;;;;;;18.88;9.98;;;6.40;99.90;;;;;;5070408;28;20044;-85
2022/04/21 05:31:15;;;;;;;16.55;10.02;;;6.50;99.90;;;;;;5071116;28;20087;-83
2022/04/21 05:33:41;;;;;;;17.67;10.55;;;6.50;99.90;;;;;;5070029;28;20028;-83
2022/04/21 05:36:08;;;;;;;18.83;10.52;;;6.60;99.90;;;;;;5087757;28;20048;-83
2022/04/21 05:38:34;;;;;;;18.02;9.88;;;6.60;99.90;;;;;;5086456;28;20053;-83
2022/04/21 05:41:01;;;;;;;15.85;9.40;;;6.70;99.90;;;;;;5051534;23;20116;-84
2022/04/21 05:43:40;;;;;;;18.30;9.45;;;6.80;99.90;;;;;;5043561;28;20049;-86
2022/04/21 05:46:07;;;;;;;17.77;9.60;;;6.90;99.90;;;;;;5026691;28;20140;-85
2022/04/21 05:48:34;;;;;;;17.48;10.00;;;6.90;99.90;;;;;;5029607;28;20049;-84
2022/04/21 05:51:00;;;;;;;20.02;9.85;;;7.00;99.90;;;;;;5030661;28;20033;-85
2022/04/21 05:53:27;;;;;;;16.83;9.13;;;7.10;99.90;;;;;;5060393;28;20049;-84
2022/04/21 05:55:53;;;;;;;16.58;9.73;;;7.20;99.90;;;;;;5062003;28;20456;-84
2022/04/21 05:58:20;;;;;;;13.40;8.90;;;7.20;99.90;;;;;;5028915;28;20132;-84
2022/04/21 06:00:46;;;;;;;14.23;8.55;;;7.30;99.90;;;;;;5057295;28;20116;-84
2022/04/21 06:03:12;;;;;;;16.05;9.00;;;7.40;99.90;;;;;;5026720;23;20058;-86
2022/04/21 06:05:39;;;;;;;15.23;8.82;;;7.50;99.90;;;;;;5033111;22;20046;-86
2022/04/21 06:08:08;;;;;;;14.77;8.23;;;7.60;99.90;;;;;;5099962;22;20446;-86
2022/04/21 06:10:34;;;;;;;11.93;8.07;;;7.60;99.90;;;;;;5076342;28;20052;-86
2022/04/21 06:13:02;;;;;;;13.63;8.30;;;7.70;99.90;;;;;;5063965;22;20053;-86
2022/04/21 06:15:32;;;;;;;13.48;8.00;;;7.80;99.90;;;;;;5083987;22;20052;-86
2022/04/21 06:17:58;;;;;;;14.27;8.23;;;7.90;99.90;;;;;;5043587;28;20083;-84
2022/04/21 06:20:25;;;;;;;13.60;7.90;;;8.00;99.90;;;;;;5079372;28;20407;-83
2022/04/21 06:22:51;;;;;;;12.95;7.45;;;8.10;99.90;;;;;;5060653;28;20119;-85
2022/04/21 06:25:16;;;;;;;11.52;7.15;;;8.20;99.90;;;;;;5087748;22;20467;-82
2022/04/21 06:27:42;;;;;;;11.82;7.00;;;8.80;99.90;;;;;;5085786;22;20881;-83
2022/04/21 06:30:08;;;;;;;12.02;7.10;;;8.40;99.90;;;;;;5109037;22;20060;-83
2022/04/21 06:32:34;;;;;;;11.23;6.15;;;8.50;99.90;;;;;;5109574;22;20044;-82
2022/04/21 06:35:00;;;;;;;11.48;6.38;;;8.70;99.90;;;;;;5026227;28;20063;-83
2022/04/21 06:37:25;;;;;;;10.73;6.30;;;8.80;99.90;;;;;;5025216;28;20057;-81
2022/04/21 06:39:51;;;;;;;9.68;6.32;;;9.30;99.90;;;;;;5041503;28;20053;-81
2022/04/21 06:42:18;;;;;;;10.38;5.80;;;9.00;99.90;;;;;;5045432;22;20071;-87
2022/04/21 06:50:36;;;;;;;7.95;5.35;;;9.20;99.90;;;;;;5109487;22;20048;-86
2022/04/21 06:53:09;;;;;;;8.55;5.20;;;9.30;99.90;;;;;;5074947;22;20409;-87
2022/04/21 06:55:36;;;;;;;9.13;5.20;;;9.40;99.90;;;;;;5059930;22;20059;-84
2022/04/21 06:58:02;;;;;;;8.60;5.70;;;9.50;99.90;;;;;;5063311;22;20076;-86
2022/04/21 07:00:29;;;;;;;9.80;5.63;;;9.70;99.90;;;;;;5111414;22;20522;-86
2022/04/21 07:02:57;;;;;;;11.38;5.32;;;9.90;99.90;;;;;;5116500;22;20047;-88
2022/04/21 07:05:28;;;;;;;7.57;5.00;;;10.10;99.90;;;;;;5160684;22;20072;-92
2022/04/21 07:07:53;;;;;;;7.47;4.68;;;9.90;99.90;;;;;;5081632;28;20048;-87
2022/04/21 07:10:20;;;;;;;9.10;5.10;;;10.10;99.90;;;;;;5080691;28;20051;-86
2022/04/21 07:12:46;;;;;;;7.95;4.80;;;10.10;99.90;;;;;;5093882;22;20488;-86
2022/04/21 07:15:13;;;;;;;8.95;4.53;;;10.20;99.90;;;;;;5065871;22;20065;-88
2022/04/21 07:17:40;;;;;;;9.20;4.30;;;10.30;99.90;;;;;;5069383;22;20027;-88
2022/04/21 07:20:08;;;;;;;6.50;4.10;;;10.40;99.90;;;;;;5070979;22;20051;-87
2022/04/21 07:22:34;;;;;;;6.75;4.47;;;10.50;99.90;;;;;;5060531;28;20116;-86
2022/04/21 07:25:03;;;;;;;8.35;4.60;;;10.80;99.90;;;;;;5055841;22;20079;-87
2022/04/21 07:27:32;;;;;;;7.80;4.25;;;10.70;99.90;;;;;;5099325;22;20147;-86
2022/04/21 07:29:58;;;;;;;9.85;4.57;;;10.80;99.90;;;;;;5083400;22;20044;-87
2022/04/21 07:32:28;;;;;;;7.38;4.05;;;10.90;99.90;;;;;;5098918;22;20065;-84
2022/04/21 07:34:54;;;;;;;5.90;4.10;;;11.00;99.90;;;;;;5073914;22;20067;-84
2022/04/21 07:37:26;;;;;;;7.55;4.10;;;11.10;99.90;;;;;;5089394;22;20059;31
2022/04/21 07:39:52;;;;;;;7.22;4.38;;;11.20;99.90;;;;;;5038188;28;20488;-85
2022/04/21 07:42:17;;;;;;;6.63;3.72;;;11.40;99.90;;;;;;5043026;28;20041;-86
2022/04/21 07:44:43;;;;;;;6.03;3.80;;;11.40;99.90;;;;;;5042946;28;20478;-85
2022/04/21 07:47:09;;;;;;;5.63;3.58;;;11.50;99.90;;;;;;5068794;22;20142;-85
2022/04/21 07:49:48;;;;;;;5.85;3.72;;;11.60;99.90;;;;;;5138576;27;20126;-83
2022/04/21 07:55:17;;;;;;;6.90;3.45;;;11.90;99.90;;;;;;5106799;22;20048;-85
2022/04/21 07:57:45;;;;;;;5.97;3.35;;;12.20;99.90;;;;;;5042187;28;20048;-85
2022/04/21 08:00:12;;;;;;;5.90;3.53;;;12.10;99.90;;;;;;5059360;22;20040;-85
2022/04/21 08:02:40;;;;;;;6.53;3.60;;;12.20;99.90;;;;;;5093992;22;20047;-86
2022/04/21 08:05:06;;;;;;;5.55;2.90;;;12.20;99.90;;;;;;5096388;28;20078;-84
2022/04/21 08:07:34;;;;;;;4.20;2.38;;;12.30;99.90;;;;;;5082411;22;20055;-85
2022/04/21 08:10:04;;;;;;;3.85;2.22;;;12.40;99.90;;;;;;5102792;22;20056;-84
2022/04/21 08:12:58;;;;;;;4.82;2.63;;;12.50;99.90;;;;;;5062257;28;20086;-85
2022/04/21 08:15:26;;;;;;;4.28;2.45;;;13.00;99.90;;;;;;5060045;28;20056;-87
2022/04/21 08:17:54;;;;;;;3.88;2.50;;;12.60;99.90;;;;;;5106885;28;20047;-85
2022/04/21 08:20:21;;;;;;;5.07;2.30;;;12.70;99.90;;;;;;5065145;28;20043;-86
2022/04/21 08:22:47;;;;;;;4.18;2.22;;;12.80;99.90;;;;;;5076404;22;20051;-83
2022/04/21 08:33:28;;;;;;;4.15;2.60;;;13.30;99.90;;;;;;5098423;28;20043;-85
2022/04/21 08:35:58;;;;;;;4.32;2.78;;;13.40;99.90;;;;;;5060870;23;20397;-82
2022/04/21 08:38:34;;;;;;;4.43;2.53;;;13.60;99.90;;;;;;5057698;22;20057;-84
2022/04/21 08:41:10;;;;;;;5.32;2.40;;;13.60;99.90;;;;;;5057679;22;20114;-84
2022/04/21 08:43:36;;;;;;;4.15;2.63;;;13.70;99.90;;;;;;5063641;22;20041;-84
2022/04/21 08:46:04;;;;;;;4.40;2.55;;;13.80;99.90;;;;;;5065385;23;20056;-85
2022/04/21 08:48:30;;;;;;;3.70;2.42;;;14.00;99.90;;;;;;5048090;22;20107;-85
2022/04/21 08:50:56;;;;;;;3.20;2.10;;;14.10;99.90;;;;;;5057606;22;20496;-85
2022/04/21 08:53:26;;;;;;;4.70;2.60;;;14.10;99.90;;;;;;5041129;28;20044;-86
2022/04/21 08:55:52;;;;;;;4.20;2.25;;;14.20;99.90;;;;;;5040938;28;20083;-85
2022/04/21 08:58:19;;;;;;;4.30;2.65;;;14.30;99.90;;;;;;5056985;22;20140;-85
2022/04/21 09:00:45;;;;;;;4.90;2.50;;;14.30;99.90;;;;;;5074742;22;20113;-85
2022/04/21 09:03:13;;;;;;;3.78;2.40;;;14.30;99.90;;;;;;5084552;22;20048;-85
2022/04/21 09:05:39;;;;;;;3.50;2.25;;;14.30;99.90;;;;;;5100567;22;20052;-84
2022/04/21 09:08:05;;;;;;;4.70;2.58;;;14.50;99.90;;;;;;5079174;22;20043;-85
2022/04/21 09:10:32;;;;;;;5.38;2.60;;;14.60;99.90;;;;;;5108373;22;20052;-85
2022/04/21 09:13:03;;;;;;;4.25;2.50;;;14.70;99.90;;;;;;5066050;22;20513;-85
2022/04/21 09:15:31;;;;;;;4.75;2.58;;;14.90;99.90;;;;;;5072729;22;20105;-85
2022/04/21 09:18:00;;;;;;;4.80;2.30;;;14.90;99.90;;;;;;5069966;22;20116;-84
2022/04/21 09:20:36;;;;;;;5.20;2.47;;;15.10;99.90;;;;;;5094168;22;20052;-84
2022/04/21 09:23:12;;;;;;;4.85;2.40;;;15.20;99.90;;;;;;5075691;22;20101;-85
2022/04/21 09:25:49;;;;;;;4.35;2.80;;;15.30;99.90;;;;;;5109608;22;20040;-85
2022/04/21 09:28:25;;;;;;;3.95;2.20;;;15.40;99.90;;;;;;5101657;22;20053;-85
2022/04/21 09:30:59;;;;;;;4.82;2.53;;;15.50;99.90;;;;;;5097889;22;20460;-84
2022/04/21 09:33:33;;;;;;;6.15;2.70;;;15.60;99.90;;;;;;5060169;22;20048;-85
2022/04/21 09:36:01;;;;;;;4.53;2.28;;;15.70;99.90;;;;;;5052163;22;20055;-86
2022/04/21 09:38:27;;;;;;;10.85;2.53;;;15.80;99.90;;;;;;5091451;22;145120;-85
2022/04/21 09:40:53;;;;;;;4.65;2.28;;;16.00;99.90;;;;;;5061332;22;20098;-85
2022/04/21 09:43:33;;;;;;;4.15;2.60;;;16.00;99.90;;;;;;5086007;22;20556;-84
2022/04/21 09:46:17;;;;;;;5.45;2.25;;;16.10;99.90;;;;;;5080411;23;20055;-85
2022/04/21 09:48:45;;;;;;;5.05;2.70;;;16.00;99.90;;;;;;5082080;22;20090;-86
2022/04/21 09:51:15;;;;;;;5.63;2.50;;;16.00;99.90;;;;;;5069899;23;20044;-84
2022/04/21 09:53:50;;;;;;;4.47;2.22;;;15.90;99.90;;;;;;5084567;22;20059;-84
2022/04/21 09:56:16;;;;;;;4.57;2.50;;;16.10;99.90;;;;;;5094184;22;20538;-85
2022/04/21 09:58:43;;;;;;;4.90;2.65;;;16.30;99.90;;;;;;5086117;22;20396;-84
2022/04/21 10:01:09;;;;;;;4.00;2.53;;;16.30;99.90;;;;;;5084307;22;20127;-85
2022/04/21 10:03:35;;;;;;;5.25;2.78;;;16.50;99.90;;;;;;5122174;22;20047;-84
2022/04/21 10:06:02;;;;;;;4.88;2.33;;;16.50;99.90;;;;;;5101381;22;20059;-85
2022/04/21 10:08:29;;;;;;;4.10;2.47;;;16.40;99.90;;;;;;5118327;22;20043;-85
2022/04/21 10:10:56;;;;;;;6.65;2.78;;;16.60;99.90;;;;;;5117089;27;20118;-84
2022/04/21 10:13:30;;;;;;;4.93;2.40;;;16.50;99.90;;;;;;5091915;22;20124;31
2022/04/21 10:15:57;;;;;;;4.90;2.67;;;16.70;99.90;;;;;;5058249;22;21227;-85
2022/04/21 10:18:24;;;;;;;6.20;2.60;;;16.60;99.90;;;;;;5071165;22;20044;-86
2022/04/21 10:20:53;;;;;;;4.25;2.50;;;16.60;99.90;;;;;;5084234;22;20143;-85
2022/04/21 10:23:28;;;;;;;5.47;2.60;;;16.70;99.90;;;;;;5069096;22;20052;-86
2022/04/21 10:26:02;;;;;;;5.53;2.70;;;16.70;99.90;;;;;;5073472;22;20052;-85
2022/04/21 10:28:39;;;;;;;5.35;2.50;;;16.70;99.90;;;;;;5099667;22;20430;-87
2022/04/21 10:31:30;;;;;;;6.63;2.60;;;16.70;99.90;;;;;;5074342;23;20507;-85
2022/04/21 10:33:58;;;;;;;4.43;2.30;;;16.90;99.90;;;;;;5059650;28;20048;-86
2022/04/21 10:36:41;;;;;;;4.25;2.58;;;17.00;99.90;;;;;;5080713;22;20098;-86
2022/04/21 10:39:27;;;;;;;6.07;2.65;;;17.10;99.40;;;;;;5019037;28;20500;-87
2022/04/21 10:42:14;;;;;;;3.35;2.17;;;17.20;99.50;;;;;;5019621;28;20052;-85
2022/04/21 10:44:51;;;;;;;8.88;2.97;;;17.10;97.00;;;;;;5032401;22;20024;-84
2022/04/21 10:47:34;;;;;;;4.15;2.20;;;17.10;97.30;;;;;;5084540;22;20080;-87
2022/04/21 10:50:14;;;;;;;6.03;2.60;;;17.10;95.70;;;;;;5040467;28;20091;-82
2022/04/21 10:57:55;;;;;;;6.25;2.72;;;17.20;97.40;;;;;;5083229;22;20048;-86
2022/04/21 11:02:46;;;;;;;4.15;2.60;;;17.30;96.60;;;;;;5107186;22;20076;-86
2022/04/21 11:05:31;;;;;;;4.57;2.55;;;17.50;96.80;;;;;;5088352;22;20048;-86
2022/04/21 11:08:01;;;;;;;5.63;2.85;;;17.60;97.70;;;;;;5074231;22;20499;-84
2022/04/21 11:10:36;;;;;;;5.32;2.88;;;17.50;97.10;;;;;;5088483;22;20152;-85
2022/04/21 11:13:03;;;;;;;5.38;2.70;;;17.50;96.00;;;;;;5059163;28;20139;-84
2022/04/21 11:15:38;;;;;;;5.70;3.25;;;17.70;96.50;;;;;;5095916;22;20056;-85
2022/04/21 11:18:15;;;;;;;4.28;2.72;;;17.80;95.60;;;;;;5053484;28;20051;-84
2022/04/21 11:20:48;;;;;;;8.65;2.47;;;17.70;95.90;;;;;;5076023;28;20388;-85
2022/04/21 11:23:24;;;;;;;2.85;1.90;;;18.00;95.80;;;;;;5039714;28;20102;-86
2022/04/21 11:26:04;;;;;;;4.28;2.65;;;18.20;96.00;;;;;;5043540;22;20091;-86
2022/04/21 11:28:31;;;;;;;4.75;2.30;;;18.40;94.50;;;;;;5052958;28;20044;-86
2022/04/21 11:30:57;;;;;;;3.95;2.35;;;18.50;95.10;;;;;;5052414;28;20396;-86
2022/04/21 11:33:23;;;;;;;4.85;2.05;;;18.60;94.50;;;;;;5052024;28;20080;-87
2022/04/21 11:35:49;;;;;;;3.92;2.20;;;18.60;93.20;;;;;;5052060;28;20052;-86
2022/04/21 11:38:14;;;;;;;3.53;1.92;;;18.80;93.10;;;;;;5058363;22;20077;-87
2022/04/21 11:40:41;;;;;;;4.00;2.25;;;18.80;92.10;;;;;;5079057;22;20064;-84
2022/04/21 11:43:17;;;;;;;5.22;2.05;;;18.80;91.30;;;;;;5087071;22;20076;-84
2022/04/21 11:45:57;;;;;;;3.22;2.03;;;18.80;90.60;;;;;;5080130;28;20036;-85
2022/04/21 11:48:41;;;;;;;3.40;2.00;;;18.80;90.70;;;;;;5079676;28;20048;-85
2022/04/21 11:51:09;;;;;;;5.57;2.38;;;18.90;90.10;;;;;;5079606;28;20040;-84
2022/04/21 11:53:37;;;;;;;4.60;2.50;;;19.00;90.90;;;;;;5070886;22;20056;-83
2022/04/21 11:56:04;;;;;;;3.90;2.35;;;19.00;90.60;;;;;;5062729;28;20080;-86
2022/04/21 12:06:49;;;;;;;3.80;2.38;;;19.20;83.60;;;;;;5098353;28;20048;-83
2022/04/21 12:09:17;;;;;;;3.30;2.30;;;19.00;85.10;;;;;;5081627;28;20051;-86
2022/04/21 12:11:49;;;;;;;3.00;2.10;;;19.00;85.10;;;;;;5081809;28;20209;-84
2022/04/21 12:14:16;;;;;;;4.25;2.00;;;19.20;84.80;;;;;;5082406;28;20036;-85
2022/04/21 12:16:53;;;;;;;3.65;2.22;;;19.40;86.00;;;;;;5102123;22;20059;-85
2022/04/21 12:19:39;;;;;;;4.07;2.30;;;19.60;85.70;;;;;;5095276;28;20063;-87
2022/04/21 12:22:30;;;;;;;3.28;2.05;;;19.60;81.50;;;;;;5095542;28;20106;-85
2022/04/21 12:24:56;;;;;;;3.95;2.13;;;19.80;83.20;;;;;;5095178;28;20074;-86
2022/04/21 12:27:28;;;;;;;4.85;2.08;;;20.00;84.20;;;;;;5095911;28;20075;-85
2022/04/21 12:29:58;;;;;;;6.63;2.17;;;20.10;81.40;;;;;;5094822;28;20047;-86
2022/04/21 12:32:28;;;;;;;3.95;2.30;;;19.90;82.10;;;;;;5095338;28;20058;-83
2022/04/21 12:34:56;;;;;;;7.80;2.40;;;20.10;83.60;;;;;;5096076;28;20036;-84
2022/04/21 12:37:30;;;;;;;3.47;2.00;;;20.10;82.60;;;;;;5078571;28;20083;-84
2022/04/21 12:39:58;;;;;;;4.78;2.17;;;20.10;81.10;;;;;;5095374;28;20394;-85
2022/04/21 12:42:24;;;;;;;3.03;1.95;;;20.10;82.30;;;;;;5095208;28;20040;-84
2022/04/21 12:44:51;;;;;;;5.75;2.35;;;19.80;82.00;;;;;;5096840;28;20123;-85
2022/04/21 12:47:21;;;;;;;3.63;2.80;;;19.50;79.70;;;;;;5106998;28;20052;-86
2022/04/21 12:49:56;;;;;;;3.75;2.20;;;19.50;79.40;;;;;;5097399;28;20048;-82
2022/04/21 12:52:35;;;;;;;4.28;2.20;;;19.60;83.90;;;;;;5094703;28;20075;-83
2022/04/21 12:55:03;;;;;;;4.25;2.17;;;19.90;82.70;;;;;;5094682;28;20044;-84
2022/04/21 12:57:29;;;;;;;2.75;2.00;;;19.90;82.80;;;;;;5094924;28;20440;-84
2022/04/21 12:59:55;;;;;;;3.17;2.03;;;20.00;82.20;;;;;;5095616;28;20052;-83
2022/04/21 13:02:20;;;;;;;4.63;2.20;;;20.20;81.00;;;;;;5095038;28;20036;-85
2022/04/21 13:04:47;;;;;;;4.68;2.25;;;20.30;81.20;;;;;;5095064;28;20055;-83
2022/04/21 13:07:13;;;;;;;3.03;2.00;;;20.30;80.20;;;;;;5096841;28;20040;-84
2022/04/21 13:09:39;;;;;;;3.67;2.10;;;20.50;81.20;;;;;;5094162;28;20089;-85
2022/04/21 13:12:05;;;;;;;3.60;1.90;;;20.70;80.30;;;;;;5096229;28;20044;-86
2022/04/21 13:14:31;;;;;;;3.40;1.90;;;20.70;79.70;;;;;;5093983;28;20048;-84
2022/04/21 13:16:57;;;;;;;2.92;2.20;;;20.60;78.60;;;;;;5093750;28;20048;-84
2022/04/21 13:19:23;;;;;;;4.18;2.40;;;20.60;78.00;;;;;;5093850;28;20059;-84
2022/04/21 13:21:52;;;;;;;3.53;2.17;;;20.40;77.70;;;;;;5095210;28;20097;-84
2022/04/21 13:24:19;;;;;;;4.13;2.38;;;20.40;77.50;;;;;;5094036;28;20040;-86
2022/04/21 13:26:44;;;;;;;5.78;2.28;;;20.60;77.80;;;;;;5093794;28;20510;-83
2022/04/21 13:29:10;;;;;;;5.70;2.70;;;20.90;79.00;;;;;;5094492;28;20036;-84
2022/04/21 13:34:20;;;;;;;6.20;2.40;;;20.70;76.40;;;;;;5095830;28;20048;-84
2022/04/21 13:36:46;;;;;;;4.90;2.30;;;20.30;74.70;;;;;;5093673;28;20052;-86
2022/04/21 13:39:11;;;;;;;3.55;2.03;;;20.20;76.20;;;;;;5095527;28;20043;-86
2022/04/21 13:41:37;;;;;;;3.55;2.22;;;20.10;76.60;;;;;;5094995;28;20044;-86
2022/04/21 13:44:03;;;;;;;3.88;2.50;;;19.90;76.50;;;;;;5094827;28;20068;-87
2022/04/21 13:46:29;;;;;;;4.68;2.35;;;19.80;76.90;;;;;;5093488;28;20394;-85
2022/04/21 13:48:56;;;;;;;5.20;2.55;;;19.60;75.80;;;;;;5094384;28;20451;-84
2022/04/21 13:51:23;;;;;;;3.88;2.28;;;19.50;75.40;;;;;;5094884;28;20127;-87